ZKDAY WAMN-RP17
Flight info
| Callsign | ZKDAY |
|---|---|
| Flight time | 1h 26m |
| Altitude | 6500 |
| Route | WAMN WAMS RP17 |
| Aircraft | C172/L-VGD/C |
Departure
| Time | 2026-04-23 21:28 |
|---|---|
| Airport | Melangguane Airport (WAMN) |
Arrival
| Time | 2026-04-23 22:54 |
|---|---|
| Airport | Malita Airport (RP17) |
| Time | Latitude | Longitude | Altitude | Speed | Heading |
|---|---|---|---|---|---|
| 2026-04-23 21:24 | 4.01069 | 126.67473 | 16 ft | 0 kts | 124° |
| 2026-04-23 21:25 | 4.01077 | 126.67483 | 20 ft | 5 kts | 318° |
| 2026-04-23 21:25 | 4.01127 | 126.67400 | 15 ft | 11 kts | 266° |
| 2026-04-23 21:26 | 4.01100 | 126.67321 | 17 ft | 11 kts | 184° |
| 2026-04-23 21:26 | 4.01012 | 126.67321 | 15 ft | 17 kts | 176° |
| 2026-04-23 21:26 | 4.00862 | 126.67322 | 13 ft | 26 kts | 182° |
| 2026-04-23 21:26 | 4.00668 | 126.67330 | 13 ft | 26 kts | 176° |
| 2026-04-23 21:27 | 4.00637 | 126.67325 | 13 ft | 0 kts | 360° |
| 2026-04-23 21:27 | 4.00778 | 126.67322 | 13 ft | 46 kts | 1° |
| 2026-04-23 21:27 | 4.01215 | 126.67311 | 61 ft | 74 kts | 7° |
| 2026-04-23 21:28 | 4.01732 | 126.67309 | 295 ft | 71 kts | 1° |
| 2026-04-23 21:28 | 4.02236 | 126.67239 | 409 ft | 78 kts | 357° |
| 2026-04-23 21:28 | 4.02784 | 126.67187 | 520 ft | 78 kts | 2° |
| 2026-04-23 21:28 | 4.03309 | 126.67260 | 714 ft | 75 kts | 27° |
| 2026-04-23 21:29 | 4.03793 | 126.67436 | 926 ft | 75 kts | 28° |
| 2026-04-23 21:29 | 4.04271 | 126.67691 | 1085 ft | 79 kts | 32° |
| 2026-04-23 21:29 | 4.04753 | 126.67935 | 1308 ft | 76 kts | 31° |
| 2026-04-23 21:29 | 4.05237 | 126.68146 | 1499 ft | 76 kts | 31° |
| 2026-04-23 21:30 | 4.05723 | 126.68364 | 1685 ft | 76 kts | 37° |
| 2026-04-23 21:30 | 4.06062 | 126.68713 | 1929 ft | 70 kts | 62° |
| 2026-04-23 21:30 | 4.06318 | 126.69169 | 2089 ft | 77 kts | 63° |
| 2026-04-23 21:30 | 4.06583 | 126.69623 | 2342 ft | 77 kts | 59° |
| 2026-04-23 21:31 | 4.06870 | 126.70084 | 2724 ft | 79 kts | 59° |
| 2026-04-23 21:31 | 4.07172 | 126.70545 | 2930 ft | 79 kts | 58° |
| 2026-04-23 21:31 | 4.07468 | 126.71011 | 3156 ft | 79 kts | 58° |
| 2026-04-23 21:31 | 4.07762 | 126.71474 | 3396 ft | 79 kts | 59° |
| 2026-04-23 21:32 | 4.08056 | 126.71937 | 3594 ft | 79 kts | 60° |
| 2026-04-23 21:32 | 4.08356 | 126.72386 | 3777 ft | 80 kts | 54° |
| 2026-04-23 21:32 | 4.08751 | 126.72790 | 3972 ft | 82 kts | 48° |
| 2026-04-23 21:32 | 4.09182 | 126.73186 | 4125 ft | 89 kts | 44° |
| 2026-04-23 21:33 | 4.09649 | 126.73610 | 4250 ft | 90 kts | 45° |
| 2026-04-23 21:33 | 4.10158 | 126.73982 | 4414 ft | 91 kts | 40° |
| 2026-04-23 21:33 | 4.10690 | 126.74347 | 4561 ft | 94 kts | 39° |
| 2026-04-23 21:33 | 4.11236 | 126.74709 | 4698 ft | 95 kts | 33° |
| 2026-04-23 21:34 | 4.11818 | 126.75017 | 4831 ft | 94 kts | 33° |
| 2026-04-23 21:34 | 4.12203 | 126.75219 | 4923 ft | 94 kts | 32° |
| 2026-04-23 21:34 | 4.12984 | 126.75611 | 5100 ft | 96 kts | 29° |
| 2026-04-23 21:34 | 4.13590 | 126.75884 | 5225 ft | 96 kts | 30° |
| 2026-04-23 21:35 | 4.14195 | 126.76161 | 5374 ft | 94 kts | 29° |
| 2026-04-23 21:35 | 4.14768 | 126.76435 | 5540 ft | 90 kts | 35° |
| 2026-04-23 21:35 | 4.15316 | 126.76741 | 5683 ft | 91 kts | 34° |
| 2026-04-23 21:35 | 4.15865 | 126.77062 | 5799 ft | 92 kts | 34° |
| 2026-04-23 21:36 | 4.16967 | 126.77692 | 6069 ft | 92 kts | 34° |
| 2026-04-23 21:36 | 4.17518 | 126.78007 | 6209 ft | 91 kts | 34° |
| 2026-04-23 21:36 | 4.18066 | 126.78328 | 6326 ft | 92 kts | 34° |
| 2026-04-23 21:37 | 4.18621 | 126.78651 | 6415 ft | 93 kts | 34° |
| 2026-04-23 21:37 | 4.19187 | 126.78978 | 6506 ft | 97 kts | 34° |
| 2026-04-23 21:37 | 4.19587 | 126.79210 | 6514 ft | 103 kts | 34° |
| 2026-04-23 21:37 | 4.20444 | 126.79721 | 6514 ft | 111 kts | 35° |
| 2026-04-23 21:38 | 4.20890 | 126.79989 | 6508 ft | 113 kts | 35° |
| 2026-04-23 21:38 | 4.21616 | 126.80288 | 6505 ft | 118 kts | 6° |
| 2026-04-23 21:38 | 4.22703 | 126.80090 | 6506 ft | 121 kts | 354° |
| 2026-04-23 21:38 | 4.23536 | 126.79935 | 6508 ft | 123 kts | 355° |
| 2026-04-23 21:39 | 4.24389 | 126.79785 | 6515 ft | 125 kts | 356° |
| 2026-04-23 21:39 | 4.24960 | 126.79687 | 6507 ft | 126 kts | 355° |
| 2026-04-23 21:39 | 4.25829 | 126.79539 | 6506 ft | 127 kts | 355° |
| 2026-04-23 21:39 | 4.26703 | 126.79392 | 6500 ft | 126 kts | 354° |
| 2026-04-23 21:40 | 4.27555 | 126.79247 | 6495 ft | 121 kts | 355° |
| 2026-04-23 21:40 | 4.28386 | 126.79107 | 6500 ft | 123 kts | 355° |
| 2026-04-23 21:40 | 4.29525 | 126.78916 | 6505 ft | 127 kts | 355° |
| 2026-04-23 21:40 | 4.30401 | 126.78769 | 6504 ft | 128 kts | 355° |
| 2026-04-23 21:41 | 4.30994 | 126.78669 | 6507 ft | 128 kts | 356° |
| 2026-04-23 21:41 | 4.31856 | 126.78524 | 6508 ft | 126 kts | 355° |
| 2026-04-23 21:41 | 4.32725 | 126.78378 | 6508 ft | 127 kts | 355° |
| 2026-04-23 21:41 | 4.33600 | 126.78231 | 6516 ft | 128 kts | 355° |
| 2026-04-23 21:42 | 4.34760 | 126.78035 | 6505 ft | 123 kts | 356° |
| 2026-04-23 21:42 | 4.35315 | 126.77940 | 6499 ft | 121 kts | 356° |
| 2026-04-23 21:42 | 4.36144 | 126.77800 | 6502 ft | 122 kts | 356° |
| 2026-04-23 21:42 | 4.36993 | 126.77659 | 6501 ft | 125 kts | 356° |
| 2026-04-23 21:43 | 4.37859 | 126.77513 | 6506 ft | 127 kts | 356° |
| 2026-04-23 21:43 | 4.38729 | 126.77367 | 6505 ft | 127 kts | 355° |
| 2026-04-23 21:43 | 4.39602 | 126.77221 | 6499 ft | 127 kts | 356° |
| 2026-04-23 21:43 | 4.40458 | 126.77077 | 6503 ft | 126 kts | 356° |
| 2026-04-23 21:44 | 4.41323 | 126.76930 | 6510 ft | 127 kts | 356° |
| 2026-04-23 21:44 | 4.42197 | 126.76783 | 6500 ft | 127 kts | 356° |
| 2026-04-23 21:44 | 4.43064 | 126.76637 | 6512 ft | 126 kts | 356° |
| 2026-04-23 21:44 | 4.43935 | 126.76490 | 6505 ft | 126 kts | 355° |
| 2026-04-23 21:45 | 4.44801 | 126.76345 | 6508 ft | 127 kts | 356° |
| 2026-04-23 21:45 | 4.45673 | 126.76198 | 6508 ft | 127 kts | 355° |
| 2026-04-23 21:45 | 4.46543 | 126.76052 | 6508 ft | 127 kts | 356° |
| 2026-04-23 21:45 | 4.47415 | 126.75905 | 6508 ft | 127 kts | 356° |
| 2026-04-23 21:46 | 4.48278 | 126.75760 | 6514 ft | 127 kts | 356° |
| 2026-04-23 21:46 | 4.49155 | 126.75612 | 6516 ft | 129 kts | 355° |
| 2026-04-23 21:46 | 4.50038 | 126.75464 | 6508 ft | 128 kts | 356° |
| 2026-04-23 21:46 | 4.50917 | 126.75316 | 6514 ft | 128 kts | 356° |
| 2026-04-23 21:47 | 4.51794 | 126.75168 | 6513 ft | 128 kts | 355° |
| 2026-04-23 21:47 | 4.52672 | 126.75020 | 6508 ft | 128 kts | 355° |
| 2026-04-23 21:47 | 4.53552 | 126.74872 | 6509 ft | 128 kts | 355° |
| 2026-04-23 21:47 | 4.54421 | 126.74726 | 6516 ft | 129 kts | 355° |
| 2026-04-23 21:48 | 4.55307 | 126.74577 | 6508 ft | 129 kts | 356° |
| 2026-04-23 21:48 | 4.56188 | 126.74428 | 6510 ft | 128 kts | 356° |
| 2026-04-23 21:48 | 4.57066 | 126.74280 | 6509 ft | 128 kts | 355° |
| 2026-04-23 21:48 | 4.57945 | 126.74132 | 6511 ft | 128 kts | 356° |
| 2026-04-23 21:49 | 4.58823 | 126.73984 | 6510 ft | 128 kts | 356° |
| 2026-04-23 21:49 | 4.59698 | 126.73837 | 6508 ft | 128 kts | 356° |
| 2026-04-23 21:49 | 4.60574 | 126.73689 | 6508 ft | 128 kts | 356° |
| 2026-04-23 21:49 | 4.61449 | 126.73542 | 6507 ft | 128 kts | 355° |
| 2026-04-23 21:50 | 4.62325 | 126.73394 | 6514 ft | 128 kts | 355° |
| 2026-04-23 21:50 | 4.63193 | 126.73248 | 6507 ft | 128 kts | 355° |
| 2026-04-23 21:50 | 4.64074 | 126.73100 | 6508 ft | 128 kts | 356° |
| 2026-04-23 21:50 | 4.64955 | 126.72951 | 6510 ft | 128 kts | 355° |
| 2026-04-23 21:51 | 4.65832 | 126.72803 | 6508 ft | 128 kts | 355° |
| 2026-04-23 21:51 | 4.66708 | 126.72656 | 6513 ft | 128 kts | 356° |
| 2026-04-23 21:51 | 4.67589 | 126.72508 | 6514 ft | 129 kts | 356° |
| 2026-04-23 21:51 | 4.68473 | 126.72359 | 6510 ft | 128 kts | 356° |
| 2026-04-23 21:52 | 4.69350 | 126.72211 | 6511 ft | 128 kts | 355° |
| 2026-04-23 21:52 | 4.70214 | 126.72065 | 6511 ft | 127 kts | 355° |
| 2026-04-23 21:52 | 4.71089 | 126.71918 | 6513 ft | 128 kts | 355° |
| 2026-04-23 21:52 | 4.71966 | 126.71770 | 6517 ft | 128 kts | 356° |
| 2026-04-23 21:53 | 4.72845 | 126.71622 | 6513 ft | 128 kts | 356° |
| 2026-04-23 21:53 | 4.73722 | 126.71474 | 6513 ft | 128 kts | 356° |
| 2026-04-23 21:53 | 4.74598 | 126.71327 | 6510 ft | 128 kts | 356° |
| 2026-04-23 21:53 | 4.75477 | 126.71179 | 6512 ft | 128 kts | 356° |
| 2026-04-23 21:54 | 4.76350 | 126.71031 | 6512 ft | 127 kts | 356° |
| 2026-04-23 21:54 | 4.77209 | 126.70886 | 6515 ft | 126 kts | 356° |
| 2026-04-23 21:54 | 4.78075 | 126.70740 | 6513 ft | 126 kts | 356° |
| 2026-04-23 21:54 | 4.78944 | 126.70594 | 6509 ft | 127 kts | 356° |
| 2026-04-23 21:55 | 4.79817 | 126.70447 | 6510 ft | 128 kts | 356° |
| 2026-04-23 21:55 | 4.80696 | 126.70299 | 6515 ft | 128 kts | 355° |
| 2026-04-23 21:55 | 4.81578 | 126.70150 | 6510 ft | 128 kts | 355° |
| 2026-04-23 21:55 | 4.82454 | 126.70003 | 6516 ft | 127 kts | 355° |
| 2026-04-23 21:56 | 4.83326 | 126.69855 | 6512 ft | 127 kts | 356° |
| 2026-04-23 21:56 | 4.84186 | 126.69711 | 6511 ft | 128 kts | 356° |
| 2026-04-23 21:56 | 4.85064 | 126.69563 | 6510 ft | 128 kts | 356° |
| 2026-04-23 21:56 | 4.85942 | 126.69415 | 6516 ft | 128 kts | 356° |
| 2026-04-23 21:57 | 4.86818 | 126.69267 | 6514 ft | 127 kts | 356° |
| 2026-04-23 21:57 | 4.87692 | 126.69120 | 6504 ft | 128 kts | 356° |
| 2026-04-23 21:57 | 4.88570 | 126.68972 | 6516 ft | 128 kts | 356° |
| 2026-04-23 21:57 | 4.89451 | 126.68823 | 6512 ft | 129 kts | 356° |
| 2026-04-23 21:58 | 4.90332 | 126.68675 | 6515 ft | 128 kts | 356° |
| 2026-04-23 21:58 | 4.91196 | 126.68529 | 6507 ft | 127 kts | 356° |
| 2026-04-23 21:58 | 4.92065 | 126.68382 | 6516 ft | 127 kts | 356° |
| 2026-04-23 21:58 | 4.92936 | 126.68236 | 6511 ft | 127 kts | 356° |
| 2026-04-23 21:59 | 4.93810 | 126.68088 | 6509 ft | 128 kts | 356° |
| 2026-04-23 21:59 | 4.94686 | 126.67941 | 6518 ft | 128 kts | 356° |
| 2026-04-23 21:59 | 4.95563 | 126.67793 | 6516 ft | 128 kts | 356° |
| 2026-04-23 22:00 | 4.97311 | 126.67498 | 6518 ft | 127 kts | 356° |
| 2026-04-23 22:00 | 4.98172 | 126.67353 | 6513 ft | 127 kts | 356° |
| 2026-04-23 22:00 | 4.99044 | 126.67206 | 6514 ft | 127 kts | 356° |
| 2026-04-23 22:00 | 4.99918 | 126.67059 | 6513 ft | 127 kts | 356° |
| 2026-04-23 22:01 | 5.00792 | 126.66911 | 6514 ft | 128 kts | 356° |
| 2026-04-23 22:01 | 5.01669 | 126.66764 | 6517 ft | 128 kts | 356° |
| 2026-04-23 22:01 | 5.02545 | 126.66616 | 6513 ft | 128 kts | 356° |
| 2026-04-23 22:01 | 5.03421 | 126.66468 | 6520 ft | 128 kts | 356° |
| 2026-04-23 22:02 | 5.04300 | 126.66320 | 6510 ft | 128 kts | 356° |
| 2026-04-23 22:02 | 5.05171 | 126.66173 | 6521 ft | 129 kts | 356° |
| 2026-04-23 22:02 | 5.06053 | 126.66025 | 6510 ft | 128 kts | 356° |
| 2026-04-23 22:02 | 5.06931 | 126.65876 | 6509 ft | 128 kts | 356° |
| 2026-04-23 22:03 | 5.07806 | 126.65728 | 6518 ft | 127 kts | 356° |
| 2026-04-23 22:03 | 5.08678 | 126.65581 | 6515 ft | 127 kts | 356° |
| 2026-04-23 22:03 | 5.09550 | 126.65434 | 6514 ft | 127 kts | 356° |
| 2026-04-23 22:03 | 5.10423 | 126.65287 | 6518 ft | 127 kts | 356° |
| 2026-04-23 22:04 | 5.11296 | 126.65140 | 6509 ft | 127 kts | 356° |
| 2026-04-23 22:04 | 5.12170 | 126.64992 | 6511 ft | 127 kts | 356° |
| 2026-04-23 22:04 | 5.13033 | 126.64847 | 6513 ft | 127 kts | 356° |
| 2026-04-23 22:04 | 5.13905 | 126.64699 | 6517 ft | 127 kts | 356° |
| 2026-04-23 22:05 | 5.14777 | 126.64552 | 6517 ft | 127 kts | 356° |
| 2026-04-23 22:05 | 5.15648 | 126.64405 | 6521 ft | 127 kts | 356° |
| 2026-04-23 22:05 | 5.16521 | 126.64258 | 6513 ft | 127 kts | 356° |
| 2026-04-23 22:05 | 5.17394 | 126.64111 | 6521 ft | 127 kts | 355° |
| 2026-04-23 22:06 | 5.18267 | 126.63964 | 6521 ft | 127 kts | 355° |
| 2026-04-23 22:06 | 5.19138 | 126.63816 | 6514 ft | 127 kts | 356° |
| 2026-04-23 22:06 | 5.19999 | 126.63671 | 6522 ft | 127 kts | 356° |
| 2026-04-23 22:06 | 5.20873 | 126.63524 | 6521 ft | 127 kts | 356° |
| 2026-04-23 22:07 | 5.21748 | 126.63376 | 6524 ft | 128 kts | 355° |
| 2026-04-23 22:07 | 5.22624 | 126.63228 | 6518 ft | 127 kts | 356° |
| 2026-04-23 22:07 | 5.23499 | 126.63081 | 6509 ft | 128 kts | 356° |
| 2026-04-23 22:07 | 5.24372 | 126.62934 | 6505 ft | 127 kts | 356° |
| 2026-04-23 22:08 | 5.25240 | 126.62787 | 6508 ft | 127 kts | 356° |
| 2026-04-23 22:08 | 5.26111 | 126.62640 | 6506 ft | 127 kts | 355° |
| 2026-04-23 22:08 | 5.26985 | 126.62493 | 6510 ft | 127 kts | 356° |
| 2026-04-23 22:08 | 5.27848 | 126.62347 | 6505 ft | 127 kts | 355° |
| 2026-04-23 22:09 | 5.28719 | 126.62200 | 6508 ft | 127 kts | 355° |
| 2026-04-23 22:09 | 5.29584 | 126.62054 | 6510 ft | 126 kts | 356° |
| 2026-04-23 22:09 | 5.30448 | 126.61908 | 6510 ft | 126 kts | 355° |
| 2026-04-23 22:09 | 5.31315 | 126.61761 | 6509 ft | 127 kts | 356° |
| 2026-04-23 22:10 | 5.32187 | 126.61615 | 6510 ft | 127 kts | 355° |
| 2026-04-23 22:10 | 5.33060 | 126.61467 | 6511 ft | 127 kts | 355° |
| 2026-04-23 22:10 | 5.33931 | 126.61320 | 6511 ft | 127 kts | 356° |
| 2026-04-23 22:10 | 5.34791 | 126.61175 | 6509 ft | 127 kts | 355° |
| 2026-04-23 22:11 | 5.35662 | 126.61028 | 6513 ft | 127 kts | 355° |
| 2026-04-23 22:11 | 5.36531 | 126.60881 | 6516 ft | 127 kts | 356° |
| 2026-04-23 22:11 | 5.37401 | 126.60734 | 6512 ft | 127 kts | 355° |
| 2026-04-23 22:11 | 5.38274 | 126.60587 | 6513 ft | 128 kts | 356° |
| 2026-04-23 22:12 | 5.39151 | 126.60439 | 6517 ft | 128 kts | 356° |
| 2026-04-23 22:12 | 5.40029 | 126.60291 | 6514 ft | 128 kts | 356° |
| 2026-04-23 22:12 | 5.40907 | 126.60143 | 6513 ft | 128 kts | 356° |
| 2026-04-23 22:12 | 5.41780 | 126.59995 | 6510 ft | 127 kts | 355° |
| 2026-04-23 22:13 | 5.42653 | 126.59848 | 6509 ft | 127 kts | 355° |
| 2026-04-23 22:13 | 5.43502 | 126.59705 | 6514 ft | 124 kts | 355° |
| 2026-04-23 22:13 | 5.44348 | 126.59563 | 6511 ft | 123 kts | 356° |
| 2026-04-23 22:13 | 5.45187 | 126.59421 | 6508 ft | 121 kts | 356° |
| 2026-04-23 22:14 | 5.46014 | 126.59281 | 6501 ft | 120 kts | 356° |
| 2026-04-23 22:14 | 5.46834 | 126.59142 | 6501 ft | 119 kts | 356° |
| 2026-04-23 22:14 | 5.47651 | 126.59004 | 6502 ft | 119 kts | 356° |
| 2026-04-23 22:14 | 5.48474 | 126.58866 | 6499 ft | 120 kts | 356° |
| 2026-04-23 22:15 | 5.49298 | 126.58726 | 6499 ft | 120 kts | 356° |
| 2026-04-23 22:15 | 5.50112 | 126.58589 | 6502 ft | 120 kts | 356° |
| 2026-04-23 22:15 | 5.50931 | 126.58450 | 6502 ft | 119 kts | 356° |
| 2026-04-23 22:15 | 5.51750 | 126.58312 | 6501 ft | 119 kts | 356° |
| 2026-04-23 22:16 | 5.52569 | 126.58174 | 6502 ft | 120 kts | 356° |
| 2026-04-23 22:16 | 5.53391 | 126.58035 | 6502 ft | 119 kts | 356° |
| 2026-04-23 22:16 | 5.54209 | 126.57896 | 6502 ft | 119 kts | 356° |
| 2026-04-23 22:16 | 5.55026 | 126.57758 | 6510 ft | 119 kts | 355° |
| 2026-04-23 22:17 | 5.55832 | 126.57472 | 6497 ft | 130 kts | 326° |
| 2026-04-23 22:17 | 5.56429 | 126.56791 | 6493 ft | 129 kts | 314° |
| 2026-04-23 22:17 | 5.57003 | 126.56107 | 6495 ft | 127 kts | 316° |
| 2026-04-23 22:17 | 5.57574 | 126.55450 | 6493 ft | 127 kts | 316° |
| 2026-04-23 22:18 | 5.58157 | 126.54787 | 6497 ft | 127 kts | 316° |
| 2026-04-23 22:18 | 5.58740 | 126.54126 | 6498 ft | 126 kts | 316° |
| 2026-04-23 22:18 | 5.59322 | 126.53468 | 6498 ft | 126 kts | 316° |
| 2026-04-23 22:18 | 5.59910 | 126.52805 | 6497 ft | 128 kts | 316° |
| 2026-04-23 22:19 | 5.60502 | 126.52136 | 6497 ft | 128 kts | 317° |
| 2026-04-23 22:19 | 5.61095 | 126.51467 | 6499 ft | 128 kts | 316° |
| 2026-04-23 22:19 | 5.61688 | 126.50797 | 6503 ft | 129 kts | 316° |
| 2026-04-23 22:19 | 5.62276 | 126.50134 | 6503 ft | 129 kts | 317° |
| 2026-04-23 22:20 | 5.62877 | 126.49456 | 6472 ft | 131 kts | 316° |
| 2026-04-23 22:20 | 5.63477 | 126.48778 | 6473 ft | 130 kts | 316° |
| 2026-04-23 22:20 | 5.64075 | 126.48102 | 6471 ft | 129 kts | 316° |
| 2026-04-23 22:20 | 5.64671 | 126.47429 | 6473 ft | 129 kts | 316° |
| 2026-04-23 22:21 | 5.65269 | 126.46755 | 6472 ft | 129 kts | 316° |
| 2026-04-23 22:21 | 5.65868 | 126.46078 | 6474 ft | 130 kts | 316° |
| 2026-04-23 22:21 | 5.66468 | 126.45401 | 6474 ft | 130 kts | 316° |
| 2026-04-23 22:21 | 5.67069 | 126.44722 | 6473 ft | 130 kts | 316° |
| 2026-04-23 22:22 | 5.67661 | 126.44053 | 6475 ft | 130 kts | 316° |
| 2026-04-23 22:22 | 5.68262 | 126.43374 | 6472 ft | 130 kts | 316° |
| 2026-04-23 22:22 | 5.68862 | 126.42696 | 6473 ft | 130 kts | 317° |
| 2026-04-23 22:22 | 5.69463 | 126.42018 | 6474 ft | 130 kts | 316° |
| 2026-04-23 22:23 | 5.70064 | 126.41339 | 6475 ft | 130 kts | 316° |
| 2026-04-23 22:23 | 5.70665 | 126.40660 | 6478 ft | 130 kts | 317° |
| 2026-04-23 22:23 | 5.71266 | 126.39982 | 6477 ft | 130 kts | 317° |
| 2026-04-23 22:23 | 5.71865 | 126.39304 | 6476 ft | 130 kts | 317° |
| 2026-04-23 22:24 | 5.72461 | 126.38630 | 6475 ft | 129 kts | 317° |
| 2026-04-23 22:24 | 5.73055 | 126.37959 | 6477 ft | 128 kts | 316° |
| 2026-04-23 22:24 | 5.73640 | 126.37299 | 6475 ft | 128 kts | 316° |
| 2026-04-23 22:24 | 5.74230 | 126.36631 | 6475 ft | 128 kts | 316° |
| 2026-04-23 22:25 | 5.74821 | 126.35964 | 6474 ft | 128 kts | 317° |
| 2026-04-23 22:25 | 5.75414 | 126.35295 | 6479 ft | 128 kts | 317° |
| 2026-04-23 22:25 | 5.76008 | 126.34623 | 6479 ft | 129 kts | 317° |
| 2026-04-23 22:25 | 5.76605 | 126.33949 | 6478 ft | 129 kts | 316° |
| 2026-04-23 22:26 | 5.77203 | 126.33273 | 6477 ft | 130 kts | 317° |
| 2026-04-23 22:26 | 5.77802 | 126.32597 | 6481 ft | 130 kts | 317° |
| 2026-04-23 22:26 | 5.78402 | 126.31919 | 6480 ft | 130 kts | 317° |
| 2026-04-23 22:26 | 5.79002 | 126.31240 | 6479 ft | 130 kts | 317° |
| 2026-04-23 22:27 | 5.79593 | 126.30572 | 6481 ft | 130 kts | 317° |
| 2026-04-23 22:27 | 5.80190 | 126.29897 | 6480 ft | 129 kts | 317° |
| 2026-04-23 22:27 | 5.80784 | 126.29225 | 6477 ft | 129 kts | 317° |
| 2026-04-23 22:27 | 5.81378 | 126.28555 | 6478 ft | 128 kts | 316° |
| 2026-04-23 22:28 | 5.81970 | 126.27885 | 6484 ft | 128 kts | 317° |
| 2026-04-23 22:28 | 5.82563 | 126.27215 | 6477 ft | 128 kts | 316° |
| 2026-04-23 22:28 | 5.83154 | 126.26547 | 6481 ft | 128 kts | 316° |
| 2026-04-23 22:28 | 5.83746 | 126.25877 | 6476 ft | 128 kts | 317° |
| 2026-04-23 22:29 | 5.84339 | 126.25208 | 6481 ft | 128 kts | 317° |
| 2026-04-23 22:29 | 5.84925 | 126.24545 | 6481 ft | 129 kts | 317° |
| 2026-04-23 22:29 | 5.85518 | 126.23874 | 6482 ft | 128 kts | 317° |
| 2026-04-23 22:29 | 5.86110 | 126.23206 | 6484 ft | 128 kts | 317° |
| 2026-04-23 22:30 | 5.86701 | 126.22537 | 6483 ft | 128 kts | 317° |
| 2026-04-23 22:30 | 5.87290 | 126.21870 | 6481 ft | 128 kts | 317° |
| 2026-04-23 22:30 | 5.87879 | 126.21205 | 6477 ft | 127 kts | 317° |
| 2026-04-23 22:30 | 5.88467 | 126.20540 | 6481 ft | 127 kts | 316° |
| 2026-04-23 22:31 | 5.89056 | 126.19874 | 6484 ft | 128 kts | 316° |
| 2026-04-23 22:31 | 5.89647 | 126.19206 | 6481 ft | 128 kts | 317° |
| 2026-04-23 22:31 | 5.90232 | 126.18544 | 6483 ft | 128 kts | 317° |
| 2026-04-23 22:31 | 5.90823 | 126.17875 | 6484 ft | 128 kts | 316° |
| 2026-04-23 22:32 | 5.91413 | 126.17208 | 6481 ft | 127 kts | 316° |
| 2026-04-23 22:32 | 5.91999 | 126.16546 | 6487 ft | 127 kts | 316° |
| 2026-04-23 22:32 | 5.92585 | 126.15883 | 6485 ft | 127 kts | 317° |
| 2026-04-23 22:32 | 5.93171 | 126.15220 | 6487 ft | 127 kts | 317° |
| 2026-04-23 22:33 | 5.93757 | 126.14558 | 6485 ft | 127 kts | 317° |
| 2026-04-23 22:33 | 5.94324 | 126.13876 | 6479 ft | 130 kts | 303° |
| 2026-04-23 22:33 | 5.94584 | 126.12974 | 6351 ft | 140 kts | 287° |
| 2026-04-23 22:33 | 5.94813 | 126.12021 | 6195 ft | 144 kts | 287° |
| 2026-04-23 22:34 | 5.95048 | 126.11033 | 6035 ft | 146 kts | 287° |
| 2026-04-23 22:34 | 5.95289 | 126.10036 | 5870 ft | 147 kts | 287° |
| 2026-04-23 22:34 | 5.95530 | 126.09036 | 5703 ft | 148 kts | 287° |
| 2026-04-23 22:34 | 5.95767 | 126.08032 | 5535 ft | 148 kts | 287° |
| 2026-04-23 22:35 | 5.96005 | 126.07027 | 5370 ft | 148 kts | 287° |
| 2026-04-23 22:35 | 5.96264 | 126.06026 | 5201 ft | 148 kts | 290° |
| 2026-04-23 22:35 | 5.96569 | 126.05044 | 5058 ft | 146 kts | 291° |
| 2026-04-23 22:35 | 5.96867 | 126.04085 | 4919 ft | 146 kts | 291° |
| 2026-04-23 22:36 | 5.97166 | 126.03114 | 4777 ft | 145 kts | 291° |
| 2026-04-23 22:36 | 5.97461 | 126.02141 | 4633 ft | 146 kts | 291° |
| 2026-04-23 22:36 | 5.97760 | 126.01170 | 4483 ft | 145 kts | 291° |
| 2026-04-23 22:36 | 5.98069 | 126.00202 | 4340 ft | 145 kts | 292° |
| 2026-04-23 22:37 | 5.98381 | 125.99237 | 4193 ft | 145 kts | 292° |
| 2026-04-23 22:37 | 5.98688 | 125.98270 | 4052 ft | 145 kts | 292° |
| 2026-04-23 22:37 | 5.98993 | 125.97303 | 3902 ft | 145 kts | 292° |
| 2026-04-23 22:37 | 5.99297 | 125.96338 | 3759 ft | 145 kts | 292° |
| 2026-04-23 22:38 | 5.99597 | 125.95390 | 3620 ft | 144 kts | 292° |
| 2026-04-23 22:38 | 5.99893 | 125.94426 | 3475 ft | 145 kts | 292° |
| 2026-04-23 22:38 | 6.00192 | 125.93461 | 3335 ft | 145 kts | 292° |
| 2026-04-23 22:38 | 6.00498 | 125.92497 | 3195 ft | 145 kts | 292° |
| 2026-04-23 22:39 | 6.00804 | 125.91536 | 3048 ft | 145 kts | 292° |
| 2026-04-23 22:39 | 6.01110 | 125.90568 | 2904 ft | 146 kts | 292° |
| 2026-04-23 22:39 | 6.01426 | 125.89593 | 2765 ft | 147 kts | 293° |
| 2026-04-23 22:39 | 6.01783 | 125.88633 | 2622 ft | 147 kts | 295° |
| 2026-04-23 22:40 | 6.02143 | 125.87690 | 2482 ft | 145 kts | 295° |
| 2026-04-23 22:40 | 6.02493 | 125.86773 | 2488 ft | 138 kts | 295° |
| 2026-04-23 22:40 | 6.03157 | 125.84978 | 2484 ft | 136 kts | 294° |
| 2026-04-23 22:41 | 6.03483 | 125.84092 | 2477 ft | 136 kts | 295° |
| 2026-04-23 22:41 | 6.03814 | 125.83203 | 2483 ft | 137 kts | 295° |
| 2026-04-23 22:41 | 6.04146 | 125.82304 | 2476 ft | 136 kts | 295° |
| 2026-04-23 22:41 | 6.04473 | 125.81419 | 2478 ft | 135 kts | 295° |
| 2026-04-23 22:42 | 6.04797 | 125.80552 | 2486 ft | 135 kts | 295° |
| 2026-04-23 22:42 | 6.05126 | 125.79666 | 2490 ft | 136 kts | 295° |
| 2026-04-23 22:42 | 6.05456 | 125.78772 | 2483 ft | 136 kts | 295° |
| 2026-04-23 22:42 | 6.05787 | 125.77896 | 2488 ft | 133 kts | 295° |
| 2026-04-23 22:43 | 6.06114 | 125.77022 | 2488 ft | 134 kts | 296° |
| 2026-04-23 22:43 | 6.06479 | 125.76157 | 2479 ft | 133 kts | 300° |
| 2026-04-23 22:43 | 6.06918 | 125.75337 | 2485 ft | 133 kts | 303° |
| 2026-04-23 22:43 | 6.07378 | 125.74529 | 2494 ft | 133 kts | 308° |
| 2026-04-23 22:44 | 6.07949 | 125.73808 | 2479 ft | 132 kts | 315° |
| 2026-04-23 22:44 | 6.08578 | 125.73148 | 2435 ft | 133 kts | 319° |
| 2026-04-23 22:44 | 6.09226 | 125.72487 | 2389 ft | 133 kts | 317° |
| 2026-04-23 22:44 | 6.09915 | 125.71883 | 2348 ft | 131 kts | 331° |
| 2026-04-23 22:45 | 6.10717 | 125.71477 | 2228 ft | 128 kts | 344° |
| 2026-04-23 22:45 | 6.11572 | 125.71252 | 2160 ft | 125 kts | 353° |
| 2026-04-23 22:45 | 6.12411 | 125.71113 | 2072 ft | 122 kts | 355° |
| 2026-04-23 22:45 | 6.13262 | 125.71063 | 1954 ft | 122 kts | 1° |
| 2026-04-23 22:46 | 6.14101 | 125.71049 | 1881 ft | 120 kts | 1° |
| 2026-04-23 22:46 | 6.14939 | 125.71063 | 1802 ft | 121 kts | 2° |
| 2026-04-23 22:46 | 6.15766 | 125.71022 | 1744 ft | 121 kts | 354° |
| 2026-04-23 22:46 | 6.16603 | 125.70906 | 1718 ft | 122 kts | 355° |
| 2026-04-23 22:47 | 6.17453 | 125.70798 | 1678 ft | 124 kts | 353° |
| 2026-04-23 22:47 | 6.18307 | 125.70681 | 1658 ft | 123 kts | 354° |
| 2026-04-23 22:47 | 6.19145 | 125.70569 | 1581 ft | 122 kts | 353° |
| 2026-04-23 22:47 | 6.19988 | 125.70419 | 1501 ft | 122 kts | 349° |
| 2026-04-23 22:48 | 6.20805 | 125.70229 | 1462 ft | 120 kts | 344° |
| 2026-04-23 22:48 | 6.21594 | 125.69956 | 1440 ft | 121 kts | 341° |
| 2026-04-23 22:48 | 6.22392 | 125.69668 | 1495 ft | 120 kts | 340° |
| 2026-04-23 22:48 | 6.23190 | 125.69372 | 1510 ft | 124 kts | 343° |
| 2026-04-23 22:49 | 6.24002 | 125.69070 | 1499 ft | 124 kts | 341° |
| 2026-04-23 22:49 | 6.24755 | 125.68702 | 1547 ft | 121 kts | 335° |
| 2026-04-23 22:49 | 6.25498 | 125.68267 | 1515 ft | 124 kts | 328° |
| 2026-04-23 22:49 | 6.26202 | 125.67780 | 1493 ft | 123 kts | 326° |
| 2026-04-23 22:50 | 6.26903 | 125.67292 | 1472 ft | 122 kts | 329° |
| 2026-04-23 22:50 | 6.27634 | 125.66866 | 1443 ft | 122 kts | 332° |
| 2026-04-23 22:50 | 6.28421 | 125.66531 | 1438 ft | 122 kts | 342° |
| 2026-04-23 22:50 | 6.29208 | 125.66271 | 1409 ft | 120 kts | 344° |
| 2026-04-23 22:51 | 6.30005 | 125.66025 | 1357 ft | 119 kts | 344° |
| 2026-04-23 22:51 | 6.30785 | 125.65773 | 1322 ft | 117 kts | 342° |
| 2026-04-23 22:51 | 6.31554 | 125.65507 | 1289 ft | 119 kts | 341° |
| 2026-04-23 22:51 | 6.32308 | 125.65170 | 1256 ft | 119 kts | 336° |
| 2026-04-23 22:52 | 6.33054 | 125.64816 | 1270 ft | 117 kts | 336° |
| 2026-04-23 22:52 | 6.33797 | 125.64475 | 1238 ft | 118 kts | 338° |
| 2026-04-23 22:52 | 6.34545 | 125.64133 | 1211 ft | 116 kts | 336° |
| 2026-04-23 22:52 | 6.35278 | 125.63797 | 1120 ft | 116 kts | 337° |
| 2026-04-23 22:53 | 6.36023 | 125.63470 | 1014 ft | 117 kts | 337° |
| 2026-04-23 22:53 | 6.36747 | 125.63133 | 927 ft | 112 kts | 335° |
| 2026-04-23 22:53 | 6.37421 | 125.62752 | 760 ft | 109 kts | 329° |
| 2026-04-23 22:53 | 6.38047 | 125.62412 | 571 ft | 99 kts | 336° |
| 2026-04-23 22:54 | 6.38657 | 125.62198 | 333 ft | 87 kts | 347° |
| 2026-04-23 22:54 | 6.39220 | 125.62088 | 153 ft | 82 kts | 352° |
| 2026-04-23 22:54 | 6.39751 | 125.62009 | 23 ft | 71 kts | 353° |
| 2026-04-23 22:54 | 6.40131 | 125.61946 | 19 ft | 28 kts | 349° |
| 2026-04-23 22:55 | 6.40136 | 125.61937 | 21 ft | 14 kts | 167° |
| 2026-04-23 22:55 | 6.40091 | 125.61898 | 21 ft | 12 kts | 289° |
| 2026-04-23 22:55 | 6.40108 | 125.61889 | 21 ft | 0 kts | 10° |